createdAt,value
2022-09-23T00:01:27.668Z,1.35
2022-09-23T00:03:56.300Z,2.00
2022-09-23T00:06:24.607Z,2.30
2022-09-23T00:08:52.942Z,1.80
2022-09-23T00:11:27.353Z,1.50
2022-09-23T00:13:59.170Z,1.77
2022-09-23T00:16:34.378Z,1.80
2022-09-23T00:19:05.865Z,2.30
2022-09-23T00:24:02.294Z,1.88
2022-09-23T00:26:30.174Z,1.65
2022-09-23T00:28:58.358Z,1.70
2022-09-23T00:31:27.314Z,1.52
2022-09-23T00:34:00.777Z,2.05
2022-09-23T00:36:32.200Z,2.40
2022-09-23T00:39:00.242Z,2.05
2022-09-23T00:41:28.149Z,2.38
2022-09-23T00:43:59.010Z,1.75
2022-09-23T00:46:39.527Z,1.55
2022-09-23T00:49:23.002Z,1.95
2022-09-23T00:51:58.408Z,2.03
2022-09-23T00:54:27.369Z,1.88
2022-09-23T00:56:55.859Z,2.42
2022-09-23T00:59:24.454Z,1.80
2022-09-23T01:01:58.088Z,1.70
2022-09-23T01:04:28.307Z,1.60
2022-09-23T01:06:56.206Z,1.92
2022-09-23T01:09:25.135Z,1.98
2022-09-23T01:12:18.876Z,1.65
2022-09-23T01:15:11.286Z,2.13
2022-09-23T01:17:54.900Z,2.00
2022-09-23T01:20:45.675Z,1.40
2022-09-23T01:23:28.652Z,1.90
2022-09-23T01:26:03.865Z,1.80
2022-09-23T01:29:21.746Z,2.17
2022-09-23T01:32:02.844Z,2.13
2022-09-23T01:34:42.506Z,1.80
2022-09-23T01:37:34.738Z,1.70
2022-09-23T01:40:17.501Z,1.63
2022-09-23T01:43:13.449Z,1.70
2022-09-23T01:45:47.824Z,1.55
2022-09-23T01:48:34.240Z,1.83
2022-09-23T01:51:25.071Z,2.55
2022-09-23T01:54:27.356Z,1.70
2022-09-23T01:57:05.530Z,2.03
2022-09-23T01:59:47.201Z,1.80
2022-09-23T02:02:34.432Z,2.15
2022-09-23T02:05:19.048Z,2.17
2022-09-23T02:07:57.937Z,2.00
2022-09-23T02:10:49.840Z,2.10
2022-09-23T02:13:30.076Z,2.10
2022-09-23T02:16:04.422Z,1.95
2022-09-23T02:18:41.923Z,1.70
2022-09-23T02:21:11.276Z,2.10
2022-09-23T02:23:46.679Z,2.10
2022-09-23T02:26:53.089Z,1.95
2022-09-23T02:29:55.687Z,2.15
2022-09-23T02:32:48.262Z,2.63
2022-09-23T02:35:33.172Z,1.80
2022-09-23T02:38:21.503Z,2.83
2022-09-23T02:40:53.728Z,1.85
2022-09-23T02:43:35.953Z,2.03
2022-09-23T02:46:06.170Z,2.15
2022-09-23T02:49:00.706Z,2.00
2022-09-23T02:51:28.877Z,2.22
2022-09-23T02:53:58.497Z,1.98
2022-09-23T02:56:26.538Z,1.88
2022-09-23T02:58:55.038Z,1.80
2022-09-23T03:01:41.114Z,2.20
2022-09-23T03:04:15.597Z,2.20
2022-09-23T03:06:47.388Z,2.53
2022-09-23T03:09:35.943Z,2.17
2022-09-23T03:12:48.168Z,2.30
2022-09-23T03:15:46.043Z,2.28
2022-09-23T03:18:23.694Z,2.30
2022-09-23T03:20:59.283Z,2.65
2022-09-23T03:23:35.617Z,1.75
2022-09-23T03:26:31.289Z,2.20
2022-09-23T03:29:02.824Z,1.90
2022-09-23T03:31:32.756Z,1.77
2022-09-23T03:34:07.386Z,1.70
2022-09-23T03:36:51.430Z,2.03
2022-09-23T03:39:40.180Z,1.83
2022-09-23T03:42:22.773Z,1.77
2022-09-23T03:44:56.306Z,1.80
2022-09-23T03:47:26.729Z,2.10
2022-09-23T03:49:56.442Z,2.00
2022-09-23T03:52:25.715Z,2.25
2022-09-23T03:54:53.828Z,2.08
2022-09-23T03:57:22.202Z,2.38
2022-09-23T03:59:53.768Z,1.90
2022-09-23T04:02:21.636Z,2.20
2022-09-23T04:04:49.621Z,1.95
2022-09-23T04:07:17.925Z,2.05
2022-09-23T04:09:45.885Z,1.85
2022-09-23T04:12:15.711Z,2.00
2022-09-23T04:14:43.827Z,2.40
2022-09-23T04:17:12.610Z,1.80
2022-09-23T04:19:40.706Z,1.65
2022-09-23T04:22:09.127Z,1.73
2022-09-23T04:24:37.238Z,1.80
2022-09-23T04:27:05.327Z,2.10
2022-09-23T04:29:33.435Z,1.50
2022-09-23T04:32:01.411Z,2.33
2022-09-23T04:34:29.250Z,1.73
2022-09-23T04:36:57.083Z,1.42
2022-09-23T04:39:24.890Z,2.25
2022-09-23T04:41:52.750Z,1.73
2022-09-23T04:44:21.166Z,1.95
2022-09-23T04:46:50.737Z,1.88
2022-09-23T04:49:18.626Z,1.90
2022-09-23T04:51:46.651Z,2.30
2022-09-23T04:54:15.149Z,2.17
2022-09-23T04:56:43.250Z,1.92
2022-09-23T04:59:11.176Z,2.13
2022-09-23T05:01:39.227Z,1.73
2022-09-23T05:04:11.914Z,1.88
2022-09-23T05:06:39.926Z,1.83
2022-09-23T05:09:08.612Z,1.90
2022-09-23T05:11:36.823Z,1.85
2022-09-23T05:14:04.704Z,1.80
2022-09-23T05:16:32.806Z,2.20
2022-09-23T05:19:00.989Z,2.38
2022-09-23T05:21:29.009Z,2.10
2022-09-23T05:23:59.152Z,2.35
2022-09-23T05:26:31.530Z,2.10
2022-09-23T05:28:59.943Z,1.85
2022-09-23T05:31:29.674Z,1.73
2022-09-23T05:34:04.684Z,1.70
2022-09-23T05:36:38.398Z,2.00
2022-09-23T05:39:08.723Z,1.90
2022-09-23T05:41:37.014Z,1.70
2022-09-23T05:44:04.988Z,1.67
2022-09-23T05:46:33.680Z,2.25
2022-09-23T05:49:06.578Z,2.40
2022-09-23T05:51:35.791Z,1.80
2022-09-23T05:54:04.624Z,2.33
2022-09-23T05:56:33.915Z,2.00
2022-09-23T05:59:02.863Z,1.95
2022-09-23T06:01:34.412Z,1.80
2022-09-23T06:04:05.113Z,1.80
2022-09-23T06:06:41.483Z,2.00
2022-09-23T06:09:13.810Z,2.50
2022-09-23T06:11:42.255Z,2.15
2022-09-23T06:14:13.882Z,2.08
2022-09-23T06:16:43.196Z,1.58
2022-09-23T06:19:11.375Z,1.50
2022-09-23T06:27:04.785Z,1.95
2022-09-23T06:29:33.055Z,2.00
2022-09-23T06:32:01.116Z,2.47
2022-09-23T06:34:29.865Z,2.47
2022-09-23T06:36:59.682Z,2.08
2022-09-23T06:39:30.009Z,2.17
2022-09-23T06:41:57.820Z,2.53
2022-09-23T06:44:28.652Z,2.35
2022-09-23T06:46:56.517Z,2.58
2022-09-23T06:49:24.530Z,2.40
2022-09-23T06:51:52.542Z,2.50
2022-09-23T06:54:20.315Z,2.25
2022-09-23T06:56:48.343Z,1.80
2022-09-23T06:59:17.044Z,2.10
2022-09-23T07:01:46.983Z,1.80
2022-09-23T07:04:15.044Z,1.90
2022-09-23T07:06:42.943Z,2.00
2022-09-23T07:09:10.996Z,2.10
2022-09-23T07:11:39.682Z,2.05
2022-09-23T07:14:07.657Z,1.80
2022-09-23T07:16:35.467Z,1.75
2022-09-23T07:19:03.256Z,2.60
2022-09-23T07:21:31.103Z,1.98
2022-09-23T07:23:59.031Z,2.22
2022-09-23T07:26:26.999Z,2.47
2022-09-23T07:28:56.625Z,2.22
2022-09-23T07:31:37.639Z,2.00
2022-09-23T07:34:09.827Z,2.28
2022-09-23T07:36:40.622Z,1.65
2022-09-23T07:39:11.921Z,2.20
2022-09-23T07:41:41.454Z,2.15
2022-09-23T07:44:11.725Z,2.53
2022-09-23T07:46:40.095Z,2.17
2022-09-23T07:49:08.361Z,2.50
2022-09-23T07:51:38.637Z,2.30
2022-09-23T07:54:09.825Z,2.17
2022-09-23T07:59:09.295Z,2.05
2022-09-23T08:04:14.564Z,2.50
2022-09-23T08:06:48.466Z,2.20
2022-09-23T08:09:18.428Z,2.28
2022-09-23T08:11:46.471Z,1.92
2022-09-23T08:14:15.415Z,2.10
2022-09-23T08:16:45.253Z,2.22
2022-09-23T08:19:13.578Z,2.13
2022-09-23T08:21:41.934Z,2.10
2022-09-23T08:24:14.468Z,2.40
2022-09-23T08:26:42.874Z,2.28
2022-09-23T08:29:14.078Z,2.17
2022-09-23T08:31:42.561Z,2.10
2022-09-23T08:34:10.750Z,2.35
2022-09-23T08:36:38.566Z,2.22
2022-09-23T08:39:06.881Z,1.95
2022-09-23T08:41:39.298Z,1.73
2022-09-23T08:44:42.479Z,2.08
2022-09-23T08:47:20.766Z,1.92
2022-09-23T08:50:03.857Z,2.35
2022-09-23T08:53:11.690Z,2.33
2022-09-23T08:55:46.802Z,1.80
2022-09-23T08:58:26.220Z,1.80
2022-09-23T09:01:02.946Z,2.00
2022-09-23T09:03:41.154Z,2.10
2022-09-23T09:06:18.911Z,1.67
2022-09-23T09:08:55.573Z,2.20
2022-09-23T09:11:31.224Z,1.63
2022-09-23T09:14:15.991Z,2.00
2022-09-23T09:17:05.630Z,2.40
2022-09-23T09:19:40.608Z,1.92
2022-09-23T09:22:20.486Z,1.98
2022-09-23T09:24:49.577Z,1.95
2022-09-23T09:44:03.416Z,1.27
2022-09-23T09:46:48.366Z,1.25
2022-09-23T09:49:41.685Z,1.30
2022-09-23T09:52:22.209Z,1.67
2022-09-23T09:54:50.926Z,1.92
2022-09-23T09:57:35.034Z,1.33
2022-09-23T10:00:35.354Z,1.27
2022-09-23T10:03:21.050Z,1.30
2022-09-23T10:05:52.226Z,1.27
2022-09-23T10:08:34.916Z,1.05
2022-09-23T10:11:18.051Z,1.30
2022-09-23T10:14:19.371Z,1.30
2022-09-23T10:17:05.458Z,0.93
2022-09-23T10:19:35.955Z,1.20
2022-09-23T10:22:14.496Z,1.40
2022-09-23T10:24:49.040Z,1.15
2022-09-23T10:27:35.198Z,1.17
2022-09-23T10:30:23.068Z,1.23
2022-09-23T10:32:53.226Z,1.00
2022-09-23T10:35:24.392Z,1.20
2022-09-23T10:37:57.114Z,1.30
2022-09-23T10:40:53.644Z,1.40
2022-09-23T10:44:16.889Z,1.80
2022-09-23T10:47:48.702Z,1.60
2022-09-23T10:50:37.654Z,1.30
2022-09-23T10:53:35.392Z,1.38
2022-09-23T10:56:32.855Z,1.55
2022-09-23T10:59:17.881Z,1.50
2022-09-23T11:02:05.407Z,1.10
2022-09-23T11:05:13.774Z,0.98
2022-09-23T11:08:13.627Z,1.42
2022-09-23T11:10:59.426Z,1.80
2022-09-23T11:14:01.857Z,1.48
2022-09-23T11:16:46.059Z,1.50
2022-09-23T11:20:06.415Z,1.20
2022-09-23T11:23:27.879Z,1.75
2022-09-23T11:26:34.070Z,1.23
2022-09-23T11:29:22.309Z,1.40
2022-09-23T11:32:10.063Z,1.20
2022-09-23T11:34:52.695Z,1.40
2022-09-23T11:37:30.307Z,1.58
2022-09-23T11:40:07.661Z,1.08
2022-09-23T11:42:46.870Z,1.30
2022-09-23T11:45:32.168Z,1.35
2022-09-23T11:48:22.307Z,1.45
2022-09-23T11:51:09.109Z,1.63
2022-09-23T11:53:59.687Z,1.33
2022-09-23T11:56:48.425Z,1.30
2022-09-23T11:59:40.741Z,1.17
2022-09-23T12:02:33.823Z,1.67
2022-09-23T12:05:13.985Z,1.35
2022-09-23T12:07:56.598Z,1.30
2022-09-23T12:10:47.404Z,1.33
2022-09-23T12:13:36.513Z,1.60
2022-09-23T12:17:07.767Z,1.35
2022-09-23T12:25:46.289Z,1.50
2022-09-23T12:28:25.087Z,1.67
2022-09-23T12:30:58.688Z,1.40
2022-09-23T12:33:32.705Z,1.38
2022-09-23T12:36:12.233Z,1.27
2022-09-23T12:38:59.765Z,1.50
2022-09-23T12:41:37.581Z,1.25
2022-09-23T12:44:12.343Z,1.58
2022-09-23T12:46:43.841Z,1.45
2022-09-23T12:49:30.205Z,1.20
2022-09-23T12:52:16.307Z,1.38
2022-09-23T12:54:49.923Z,1.17
2022-09-23T12:57:36.179Z,1.40
2022-09-23T13:00:11.197Z,1.27
2022-09-23T13:02:47.945Z,1.25
2022-09-23T13:05:45.328Z,1.90
2022-09-23T13:08:18.739Z,1.23
2022-09-23T13:10:53.040Z,1.30
2022-09-23T13:13:32.961Z,1.70
2022-09-23T13:16:31.634Z,1.47
2022-09-23T13:19:00.564Z,1.50
2022-09-23T13:21:43.637Z,1.60
2022-09-23T13:24:20.974Z,1.50
2022-09-23T13:26:55.674Z,1.35
2022-09-23T13:29:33.064Z,1.40
2022-09-23T13:32:03.905Z,1.65
2022-09-23T13:34:34.805Z,1.65
2022-09-23T13:37:23.189Z,1.48
2022-09-23T13:39:51.364Z,1.55
2022-09-23T13:42:28.603Z,1.50
2022-09-23T13:45:00.267Z,1.50
2022-09-23T13:47:30.743Z,1.45
2022-09-23T13:49:58.693Z,1.38
2022-09-23T13:52:32.331Z,1.85
2022-09-23T13:55:00.177Z,1.25
2022-09-23T13:57:31.955Z,1.58
2022-09-23T14:00:19.195Z,1.60
2022-09-23T14:02:47.491Z,1.38
2022-09-23T14:05:26.200Z,1.20
2022-09-23T14:07:56.394Z,1.55
2022-09-23T14:10:27.129Z,1.77
2022-09-23T14:12:56.425Z,1.45
2022-09-23T14:15:24.628Z,1.35
2022-09-23T14:18:03.246Z,1.40
2022-09-23T14:20:31.152Z,1.40
2022-09-23T14:23:13.978Z,1.10
2022-09-23T14:25:44.657Z,1.40
2022-09-23T14:28:22.529Z,1.60
2022-09-23T14:30:53.482Z,1.45
2022-09-23T14:33:30.700Z,1.20
2022-09-23T14:36:06.702Z,1.38
2022-09-23T14:38:53.161Z,1.42
2022-09-23T14:41:25.664Z,1.30
2022-09-23T14:43:54.654Z,1.45
2022-09-23T14:46:25.611Z,1.55
2022-09-23T14:49:12.066Z,1.35
2022-09-23T14:51:51.781Z,1.70
2022-09-23T14:54:50.984Z,1.50
2022-09-23T14:57:28.705Z,1.50
2022-09-23T15:00:13.230Z,1.50
2022-09-23T15:02:44.948Z,1.80
2022-09-23T15:05:22.370Z,1.40
2022-09-23T15:07:56.183Z,1.50
2022-09-23T15:10:30.018Z,1.65
2022-09-23T15:13:14.779Z,1.35
2022-09-23T15:15:43.402Z,1.30
2022-09-23T15:18:33.138Z,1.70
2022-09-23T15:21:13.842Z,1.73
2022-09-23T15:23:45.550Z,1.90
2022-09-23T15:26:21.118Z,1.30
2022-09-23T15:28:53.191Z,1.45
2022-09-23T15:31:26.340Z,1.48
2022-09-23T15:33:55.895Z,1.95
2022-09-23T15:36:26.226Z,1.60
2022-09-23T15:38:57.239Z,1.60
2022-09-23T15:41:25.156Z,1.20
2022-09-23T15:43:52.959Z,1.30
2022-09-23T15:46:28.024Z,1.35
2022-09-23T15:49:12.927Z,1.33
2022-09-23T15:51:42.870Z,1.38
2022-09-23T15:54:13.794Z,1.08
2022-09-23T15:56:41.732Z,1.30
2022-09-23T15:59:09.989Z,1.10
2022-09-23T16:01:38.321Z,1.20
2022-09-23T16:04:06.148Z,1.40
2022-09-23T16:06:36.134Z,1.30
2022-09-23T16:09:04.269Z,1.30
2022-09-23T16:11:32.712Z,1.30
2022-09-23T16:14:00.727Z,1.27
2022-09-23T16:16:28.805Z,1.30
2022-09-23T16:18:56.684Z,0.95
2022-09-23T16:21:26.732Z,1.40
2022-09-23T16:23:57.247Z,1.30
2022-09-23T16:26:29.708Z,1.10
2022-09-23T16:28:59.207Z,1.10
2022-09-23T16:31:31.298Z,1.40
2022-09-23T16:34:02.348Z,1.33
2022-09-23T16:36:41.810Z,1.42
2022-09-23T16:39:13.027Z,1.27
2022-09-23T16:41:42.875Z,1.65
2022-09-23T16:44:12.291Z,1.40
2022-09-23T16:46:42.826Z,1.17
2022-09-23T16:49:13.962Z,1.13
2022-09-23T16:51:42.125Z,1.30
2022-09-23T16:54:13.271Z,1.05
2022-09-23T16:56:46.303Z,1.63
2022-09-23T16:59:18.015Z,1.20
2022-09-23T17:02:04.496Z,1.35
2022-09-23T17:04:32.918Z,1.63
2022-09-23T17:07:00.708Z,1.20
2022-09-23T17:09:29.042Z,1.60
2022-09-23T17:12:12.550Z,1.20
2022-09-23T17:14:40.492Z,1.55
2022-09-23T17:17:08.447Z,1.20
2022-09-23T17:19:38.170Z,1.35
2022-09-23T17:22:06.137Z,1.52
2022-09-23T17:24:33.920Z,1.25
2022-09-23T17:27:01.725Z,1.58
2022-09-23T17:29:29.885Z,1.27
2022-09-23T17:31:58.026Z,1.83
2022-09-23T17:34:26.008Z,1.90
2022-09-23T17:36:53.797Z,1.20
2022-09-23T17:39:21.602Z,0.95
2022-09-23T17:41:49.481Z,1.70
2022-09-23T17:44:17.546Z,1.50
2022-09-23T17:46:45.401Z,1.55
2022-09-23T17:49:13.240Z,1.40
2022-09-23T17:51:41.249Z,1.58
2022-09-23T17:54:09.205Z,1.48
2022-09-23T17:56:37.048Z,1.80
2022-09-23T17:59:05.921Z,1.38
2022-09-23T18:01:35.467Z,1.48
2022-09-23T18:04:06.564Z,1.58
2022-09-23T18:06:37.053Z,1.63
2022-09-23T18:09:08.463Z,1.52
2022-09-23T18:11:43.488Z,1.50
2022-09-23T18:14:21.095Z,1.45
2022-09-23T18:16:51.933Z,1.65
2022-09-23T18:19:22.443Z,1.90
2022-09-23T18:21:54.520Z,1.85
2022-09-23T18:24:38.699Z,1.83
2022-09-23T18:27:07.364Z,1.95
2022-09-23T18:29:35.984Z,1.90
2022-09-23T18:32:04.014Z,1.58
2022-09-23T18:34:31.916Z,1.75
2022-09-23T18:37:00.009Z,2.00
2022-09-23T18:39:28.519Z,1.45
2022-09-23T18:41:56.583Z,1.73
2022-09-23T18:44:27.529Z,1.90
2022-09-23T18:49:41.289Z,2.03
2022-09-23T18:52:09.213Z,1.50
2022-09-23T18:54:37.031Z,1.25
2022-09-23T18:57:05.116Z,1.27
2022-09-23T18:59:33.381Z,1.35
2022-09-23T19:02:01.566Z,1.80
2022-09-23T19:04:29.584Z,1.42
2022-09-23T19:06:57.946Z,1.75
2022-09-23T19:09:26.172Z,1.80
2022-09-23T19:11:54.427Z,1.60
2022-09-23T19:14:22.442Z,1.77
2022-09-23T19:16:50.719Z,1.95
2022-09-23T19:19:18.625Z,1.50
2022-09-23T19:21:46.741Z,1.80
2022-09-23T19:24:20.177Z,1.63
2022-09-23T19:26:48.743Z,1.73
2022-09-23T19:29:21.920Z,1.73
2022-09-23T19:31:50.865Z,1.77
2022-09-23T19:34:25.985Z,1.70
2022-09-23T19:36:59.292Z,2.50
2022-09-23T19:39:31.017Z,2.17
2022-09-23T19:41:59.196Z,2.40
2022-09-23T19:44:27.436Z,2.20
2022-09-23T19:46:57.062Z,2.05
2022-09-23T19:49:25.805Z,2.40
2022-09-23T19:51:56.059Z,2.10
2022-09-23T19:54:26.791Z,2.45
2022-09-23T19:56:54.872Z,2.08
2022-09-23T19:59:22.713Z,2.15
2022-09-23T20:01:50.601Z,2.40
2022-09-23T20:04:21.495Z,2.45
2022-09-23T20:06:49.598Z,2.08
2022-09-23T20:09:17.905Z,2.35
2022-09-23T20:11:45.731Z,2.42
2022-09-23T20:14:13.752Z,1.90
2022-09-23T20:16:41.800Z,2.00
2022-09-23T20:19:10.176Z,1.90
2022-09-23T20:21:38.536Z,2.63
2022-09-23T20:24:07.469Z,2.92
2022-09-23T20:26:54.111Z,1.83
2022-09-23T20:29:21.986Z,2.50
2022-09-23T20:31:49.881Z,2.60
2022-09-23T20:34:18.445Z,2.00
2022-09-23T20:36:46.303Z,2.00
2022-09-23T20:39:14.143Z,2.60
2022-09-23T20:41:42.209Z,2.30
2022-09-23T20:44:13.792Z,2.20
2022-09-23T20:46:49.420Z,2.58
2022-09-23T20:49:18.076Z,1.88
2022-09-23T20:51:49.412Z,2.33
2022-09-23T20:54:20.521Z,2.22
2022-09-23T20:56:48.611Z,2.30
2022-09-23T20:59:17.579Z,1.90
2022-09-23T21:01:45.729Z,2.40
2022-09-23T21:04:14.026Z,2.35
2022-09-23T21:06:41.878Z,2.42
2022-09-23T21:09:09.814Z,2.72
2022-09-23T21:11:38.131Z,2.47
2022-09-23T21:14:08.756Z,2.53
2022-09-23T21:16:36.878Z,2.10
2022-09-23T21:19:07.863Z,2.55
2022-09-23T21:21:36.555Z,1.95
2022-09-23T21:24:33.631Z,2.30
2022-09-23T21:26:52.698Z,3.00
2022-09-23T21:29:20.584Z,2.83
2022-09-23T21:31:49.344Z,3.00
2022-09-23T21:34:17.865Z,2.70
2022-09-23T21:36:48.024Z,2.88
2022-09-23T21:39:16.385Z,2.70
2022-09-23T21:41:44.413Z,2.90
2022-09-23T21:44:12.272Z,2.33
2022-09-23T21:46:40.163Z,2.80
2022-09-23T21:49:09.023Z,2.85
2022-09-23T21:51:40.975Z,2.75
2022-09-23T21:54:15.417Z,2.75
2022-09-23T21:56:44.266Z,2.17
2022-09-23T21:59:12.288Z,2.67
2022-09-23T22:01:44.393Z,2.80
2022-09-23T22:04:17.336Z,2.85
2022-09-23T22:06:46.394Z,2.92
2022-09-23T22:09:17.300Z,2.55
2022-09-23T22:12:04.184Z,2.63
2022-09-23T22:14:32.266Z,2.30
2022-09-23T22:17:03.606Z,2.63
2022-09-23T22:19:42.750Z,2.55
2022-09-23T22:22:17.466Z,2.50
2022-09-23T22:24:49.038Z,2.90
2022-09-23T22:27:19.288Z,2.60
2022-09-23T22:30:26.303Z,2.47
2022-09-23T22:32:55.329Z,2.40
2022-09-23T22:35:23.283Z,2.80
2022-09-23T22:37:51.168Z,2.90
2022-09-23T22:40:19.169Z,2.65
2022-09-23T22:42:48.457Z,2.58
2022-09-23T22:45:16.460Z,2.65
2022-09-23T22:47:45.532Z,2.67
2022-09-23T22:50:14.622Z,3.03
2022-09-23T22:52:42.875Z,2.47
2022-09-23T22:55:11.339Z,2.63
2022-09-23T22:57:39.280Z,3.05
2022-09-23T23:00:08.221Z,2.40
2022-09-23T23:02:36.677Z,3.15
2022-09-23T23:05:04.947Z,2.08
2022-09-23T23:07:34.047Z,2.47
2022-09-23T23:10:03.111Z,2.33
2022-09-23T23:12:30.979Z,2.47
2022-09-23T23:14:58.832Z,2.47
2022-09-23T23:17:26.654Z,2.97
2022-09-23T23:19:54.479Z,3.13
2022-09-23T23:22:22.338Z,2.45
2022-09-23T23:24:50.761Z,3.05
2022-09-23T23:27:18.649Z,2.70
2022-09-23T23:29:46.649Z,2.42
2022-09-23T23:32:15.284Z,2.60
2022-09-23T23:34:43.462Z,2.70
2022-09-23T23:37:11.336Z,2.50
2022-09-23T23:39:39.210Z,2.50
2022-09-23T23:42:07.045Z,3.15
2022-09-23T23:44:34.935Z,3.13
2022-09-23T23:47:02.831Z,2.75
2022-09-23T23:49:30.886Z,2.58
2022-09-23T23:51:58.772Z,2.50
2022-09-23T23:54:26.732Z,2.95
2022-09-23T23:56:54.674Z,2.40
2022-09-23T23:59:22.592Z,2.75
